Time,TemperatureF,DewpointF,PressureIn,WindDirection,WindDirectionDegrees,WindSpeedMPH,WindSpeedGustMPH,Humidity,HourlyPrecipIn,Conditions,Clouds,dailyrainin,SolarRadiationWatts/m^2,SoftwareType,DateUTC
2013-03-17 00:02:00,38.0,25.0,-100.00,NNE,30,10.0,20.0,59,-99.99,,,0.00,0.120000,,2013-03-17 06:02:00,
2013-03-17 00:12:00,38.0,25.0,-100.00,NNE,30,10.0,20.0,59,-99.99,,,0.00,0.120000,,2013-03-17 06:12:00,
2013-03-17 00:42:00,34.0,30.0,-100.00,NE,49,15.0,25.0,86,-99.99,,,0.00,0.120000,,2013-03-17 06:42:00,
2013-03-17 00:52:00,34.0,30.0,-100.00,NE,49,15.0,25.0,86,-99.99,,,0.00,0.120000,,2013-03-17 06:52:00,
2013-03-17 01:02:00,34.0,30.0,-100.00,NE,49,15.0,25.0,86,-99.99,,,0.00,0.120000,,2013-03-17 07:02:00,
2013-03-17 01:12:00,34.0,30.0,-100.00,NE,49,15.0,25.0,86,-99.99,,,0.00,0.120000,,2013-03-17 07:12:00,
2013-03-17 01:42:00,32.0,32.0,-100.00,NE,41,6.0,9.0,100,-99.99,,,0.00,0.120000,,2013-03-17 07:42:00,
2013-03-17 01:52:00,32.0,32.0,-100.00,NE,41,6.0,9.0,100,-99.99,,,0.00,0.120000,,2013-03-17 07:52:00,
2013-03-17 02:02:00,32.0,32.0,-100.00,NE,41,6.0,9.0,100,-99.99,,,0.00,0.120000,,2013-03-17 08:02:00,
2013-03-17 02:12:00,32.0,32.0,-100.00,NE,41,6.0,9.0,100,-99.99,,,0.00,0.120000,,2013-03-17 08:12:00,
2013-03-17 02:42:00,32.0,32.0,-100.00,NE,54,6.0,10.0,100,-99.99,,,0.00,0.120000,,2013-03-17 08:42:00,
2013-03-17 02:52:00,32.0,32.0,-100.00,NE,54,6.0,10.0,100,-99.99,,,0.00,0.120000,,2013-03-17 08:52:00,
2013-03-17 03:02:00,32.0,32.0,-100.00,NE,54,6.0,10.0,100,-99.99,,,0.00,0.120000,,2013-03-17 09:02:00,
2013-03-17 03:12:00,32.0,32.0,-100.00,NE,54,6.0,10.0,100,-99.99,,,0.00,0.120000,,2013-03-17 09:12:00,
2013-03-17 03:42:00,32.0,32.0,-100.00,SSE,157,5.0,10.0,100,-99.99,,,0.00,0.120000,,2013-03-17 09:42:00,
2013-03-17 03:53:00,32.0,32.0,-100.00,SSE,157,5.0,10.0,100,-99.99,,,0.00,0.120000,,2013-03-17 09:53:00,
2013-03-17 04:03:00,32.0,32.0,-100.00,SSE,157,5.0,10.0,100,-99.99,,,0.00,0.120000,,2013-03-17 10:03:00,
2013-03-17 04:12:00,32.0,32.0,-100.00,SSE,157,5.0,10.0,100,-99.99,,,0.00,0.120000,,2013-03-17 10:12:00,
2013-03-17 04:42:00,31.0,30.0,-100.00,NE,36,4.0,8.0,96,-99.99,,,0.00,0.120000,,2013-03-17 10:42:00,
2013-03-17 04:52:00,31.0,30.0,-100.00,NE,36,4.0,8.0,96,-99.99,,,0.00,0.120000,,2013-03-17 10:52:00,
2013-03-17 05:02:00,31.0,30.0,-100.00,NE,36,4.0,8.0,96,-99.99,,,0.00,0.120000,,2013-03-17 11:02:00,
2013-03-17 05:12:00,31.0,30.0,-100.00,NE,36,4.0,8.0,96,-99.99,,,0.00,0.120000,,2013-03-17 11:12:00,
2013-03-17 05:42:00,32.0,27.0,-100.00,NW,316,12.0,25.0,84,-99.99,,,0.00,0.120000,,2013-03-17 11:42:00,
2013-03-17 05:52:00,32.0,27.0,-100.00,NW,316,12.0,25.0,84,-99.99,,,0.00,0.120000,,2013-03-17 11:52:00,
2013-03-17 06:02:00,32.0,27.0,-100.00,NW,316,12.0,25.0,84,-99.99,,,0.00,0.120000,,2013-03-17 12:02:00,
2013-03-17 06:12:00,32.0,27.0,-100.00,NW,316,12.0,25.0,84,-99.99,,,0.00,0.120000,,2013-03-17 12:12:00,
2013-03-17 06:42:00,28.0,17.0,-100.00,NE,39,15.0,28.0,61,-99.99,,,0.00,0.120000,,2013-03-17 12:42:00,
2013-03-17 06:52:00,28.0,17.0,-100.00,NE,39,15.0,28.0,61,-99.99,,,0.00,0.120000,,2013-03-17 12:52:00,
2013-03-17 07:01:00,28.0,17.0,-100.00,NE,39,15.0,28.0,61,-99.99,,,0.00,0.120000,,2013-03-17 13:01:00,
2013-03-17 07:12:00,28.0,17.0,-100.00,NE,39,15.0,28.0,61,-99.99,,,0.00,0.120000,,2013-03-17 13:12:00,
2013-03-17 07:42:00,30.0,8.0,-100.00,NNE,13,9.0,20.0,39,-99.99,,,0.00,0.120000,,2013-03-17 13:42:00,
2013-03-17 07:52:00,30.0,8.0,-100.00,NNE,13,9.0,20.0,39,-99.99,,,0.00,0.120000,,2013-03-17 13:52:00,
2013-03-17 08:02:00,30.0,8.0,-100.00,NNE,13,9.0,20.0,39,-99.99,,,0.00,0.120000,,2013-03-17 14:02:00,
2013-03-17 08:11:00,30.0,8.0,-100.00,NNE,13,9.0,20.0,39,-99.99,,,0.00,0.120000,,2013-03-17 14:11:00,
2013-03-17 08:42:00,28.0,6.0,-100.00,NNW,347,14.0,28.0,39,-99.99,,,-99.99,28.360001,,2013-03-17 14:42:00,
2013-03-17 08:52:00,28.0,6.0,-100.00,NNW,347,14.0,28.0,39,-99.99,,,-99.99,28.360001,,2013-03-17 14:52:00,
2013-03-17 09:02:00,28.0,6.0,-100.00,NNW,347,14.0,28.0,39,-99.99,,,-99.99,28.360001,,2013-03-17 15:02:00,
2013-03-17 09:11:00,28.0,6.0,-100.00,NNW,347,14.0,28.0,39,-99.99,,,-99.99,28.360001,,2013-03-17 15:11:00,
2013-03-17 09:42:00,29.0,5.0,-100.00,NW,323,11.0,24.0,35,-99.99,,,0.00,274.049988,,2013-03-17 15:42:00,
2013-03-17 09:53:00,29.0,5.0,-100.00,NW,323,11.0,24.0,35,-99.99,,,0.00,274.049988,,2013-03-17 15:53:00,
2013-03-17 10:03:00,29.0,5.0,-100.00,NW,323,11.0,24.0,35,-99.99,,,0.00,274.049988,,2013-03-17 16:03:00,
2013-03-17 10:12:00,29.0,5.0,-100.00,NW,323,11.0,24.0,35,-99.99,,,0.00,274.049988,,2013-03-17 16:12:00,
2013-03-17 10:42:00,30.0,9.0,-100.00,WNW,282,10.0,19.0,40,-99.99,,,0.00,388.519989,,2013-03-17 16:42:00,
2013-03-17 10:52:00,30.0,9.0,-100.00,WNW,282,10.0,19.0,40,-99.99,,,0.00,388.519989,,2013-03-17 16:52:00,
2013-03-17 11:02:00,30.0,9.0,-100.00,WNW,282,10.0,19.0,40,-99.99,,,0.00,388.519989,,2013-03-17 17:02:00,
2013-03-17 11:12:00,30.0,9.0,-100.00,WNW,282,10.0,19.0,40,-99.99,,,0.00,388.519989,,2013-03-17 17:12:00,
2013-03-17 11:42:00,30.0,9.0,-100.00,WNW,293,9.0,18.0,40,-99.99,,,0.00,348.079987,,2013-03-17 17:42:00,
2013-03-17 11:53:00,30.0,9.0,-100.00,WNW,293,9.0,18.0,40,-99.99,,,0.00,348.079987,,2013-03-17 17:53:00,
2013-03-17 12:02:00,30.0,9.0,-100.00,WNW,293,9.0,18.0,40,-99.99,,,0.00,348.079987,,2013-03-17 18:02:00,
2013-03-17 12:12:00,30.0,9.0,-100.00,WNW,293,9.0,18.0,40,-99.99,,,0.00,348.079987,,2013-03-17 18:12:00,
2013-03-17 12:42:00,29.0,15.0,-100.00,South,172,1.0,6.0,54,-99.99,,,0.00,374.459991,,2013-03-17 18:42:00,
2013-03-17 12:52:00,29.0,15.0,-100.00,South,172,1.0,6.0,54,-99.99,,,0.00,374.459991,,2013-03-17 18:52:00,
2013-03-17 13:02:00,29.0,15.0,-100.00,South,172,1.0,6.0,54,-99.99,,,0.00,374.459991,,2013-03-17 19:02:00,
2013-03-17 13:12:00,29.0,15.0,-100.00,South,172,1.0,6.0,54,-99.99,,,0.00,374.459991,,2013-03-17 19:12:00,
2013-03-17 13:41:00,31.0,11.0,-100.00,NW,311,9.0,18.0,42,-99.99,,,0.00,378.880005,,2013-03-17 19:41:00,
2013-03-17 13:53:00,31.0,11.0,-100.00,NW,311,9.0,18.0,42,-99.99,,,0.00,378.880005,,2013-03-17 19:53:00,
2013-03-17 14:02:00,31.0,11.0,-100.00,NW,311,9.0,18.0,42,-99.99,,,0.00,378.880005,,2013-03-17 20:02:00,
2013-03-17 14:12:00,31.0,11.0,-100.00,NW,311,9.0,18.0,42,-99.99,,,0.00,378.880005,,2013-03-17 20:12:00,
2013-03-17 14:42:00,31.0,11.0,-100.00,WNW,301,12.0,23.0,42,-99.99,,,0.00,352.730011,,2013-03-17 20:42:00,
2013-03-17 14:52:00,31.0,11.0,-100.00,WNW,301,12.0,23.0,42,-99.99,,,0.00,352.730011,,2013-03-17 20:52:00,
2013-03-17 15:02:00,31.0,11.0,-100.00,WNW,301,12.0,23.0,42,-99.99,,,0.00,352.730011,,2013-03-17 21:02:00,
2013-03-17 15:12:00,31.0,11.0,-100.00,WNW,301,12.0,23.0,42,-99.99,,,0.00,352.730011,,2013-03-17 21:12:00,
2013-03-17 15:42:00,31.0,13.0,-100.00,ESE,107,9.0,14.0,47,-99.99,,,0.00,147.369995,,2013-03-17 21:42:00,
2013-03-17 15:52:00,31.0,13.0,-100.00,ESE,107,9.0,14.0,47,-99.99,,,0.00,147.369995,,2013-03-17 21:52:00,
2013-03-17 16:02:00,31.0,13.0,-100.00,ESE,107,9.0,14.0,47,-99.99,,,0.00,147.369995,,2013-03-17 22:02:00,
2013-03-17 16:12:00,31.0,13.0,-100.00,ESE,107,9.0,14.0,47,-99.99,,,0.00,147.369995,,2013-03-17 22:12:00,
2013-03-17 16:42:00,35.0,12.0,-100.00,NW,313,13.0,27.0,37,-99.99,,,0.00,683.489990,,2013-03-17 22:42:00,
2013-03-17 16:52:00,35.0,12.0,-100.00,NW,313,13.0,27.0,37,-99.99,,,0.00,683.489990,,2013-03-17 22:52:00,
2013-03-17 17:02:00,35.0,12.0,-100.00,NW,313,13.0,27.0,37,-99.99,,,0.00,683.489990,,2013-03-17 23:02:00,
2013-03-17 17:12:00,35.0,12.0,-100.00,NW,313,13.0,27.0,37,-99.99,,,0.00,683.489990,,2013-03-17 23:12:00,
2013-03-17 17:42:00,34.0,12.0,-100.00,WNW,296,24.0,38.0,39,-99.99,,,0.00,454.540009,,2013-03-17 23:42:00,
2013-03-17 17:52:00,34.0,12.0,-100.00,WNW,296,24.0,38.0,39,-99.99,,,0.00,454.540009,,2013-03-17 23:52:00,
2013-03-17 18:02:00,34.0,12.0,-100.00,WNW,296,24.0,38.0,39,-99.99,,,0.00,454.540009,,2013-03-18 00:02:00,
2013-03-17 18:11:00,34.0,12.0,-100.00,WNW,296,24.0,38.0,39,-99.99,,,0.00,454.540009,,2013-03-18 00:11:00,
2013-03-17 19:42:00,30.0,11.0,-100.00,West,281,10.0,20.0,44,-99.99,,,-99.99,18.600000,,2013-03-18 01:42:00,
2013-03-17 19:52:00,30.0,11.0,-100.00,West,281,10.0,20.0,44,-99.99,,,-99.99,18.600000,,2013-03-18 01:52:00,
2013-03-17 20:02:00,30.0,11.0,-100.00,West,281,10.0,20.0,44,-99.99,,,-99.99,18.600000,,2013-03-18 02:02:00,
2013-03-17 20:12:00,30.0,11.0,-100.00,West,281,10.0,20.0,44,-99.99,,,-99.99,18.600000,,2013-03-18 02:12:00,
2013-03-17 20:42:00,29.0,7.0,-100.00,WNW,287,11.0,22.0,37,-99.99,,,0.00,0.230000,,2013-03-18 02:42:00,
2013-03-17 20:52:00,29.0,7.0,-100.00,WNW,287,11.0,22.0,37,-99.99,,,0.00,0.230000,,2013-03-18 02:52:00,
2013-03-17 21:02:00,29.0,7.0,-100.00,WNW,287,11.0,22.0,37,-99.99,,,0.00,0.230000,,2013-03-18 03:02:00,
2013-03-17 21:11:00,29.0,7.0,-100.00,WNW,287,11.0,22.0,37,-99.99,,,0.00,0.230000,,2013-03-18 03:11:00,
2013-03-17 21:42:00,26.0,14.0,-100.00,South,176,9.0,15.0,59,-99.99,,,0.00,0.120000,,2013-03-18 03:42:00,
2013-03-17 21:53:00,26.0,14.0,-100.00,South,176,9.0,15.0,59,-99.99,,,0.00,0.120000,,2013-03-18 03:53:00,
2013-03-17 22:02:00,26.0,14.0,-100.00,South,176,9.0,15.0,59,-99.99,,,0.00,0.120000,,2013-03-18 04:02:00,
2013-03-17 22:12:00,26.0,14.0,-100.00,South,176,9.0,15.0,59,-99.99,,,0.00,0.120000,,2013-03-18 04:12:00,
2013-03-17 22:42:00,26.0,10.0,-100.00,SSW,212,14.0,22.0,49,-99.99,,,0.00,0.120000,,2013-03-18 04:42:00,
2013-03-17 22:52:00,26.0,10.0,-100.00,SSW,212,14.0,22.0,49,-99.99,,,0.00,0.120000,,2013-03-18 04:52:00,
2013-03-17 23:02:00,26.0,10.0,-100.00,SSW,212,14.0,22.0,49,-99.99,,,0.00,0.120000,,2013-03-18 05:02:00,
2013-03-17 23:12:00,26.0,10.0,-100.00,SSW,212,14.0,22.0,49,-99.99,,,0.00,0.120000,,2013-03-18 05:12:00,
2013-03-17 23:43:00,28.0,8.0,-100.00,SSW,195,13.0,23.0,43,-99.99,,,0.00,0.120000,,2013-03-18 05:43:00,
2013-03-17 23:52:00,28.0,8.0,-100.00,SSW,195,13.0,23.0,43,-99.99,,,0.00,0.120000,,2013-03-18 05:52:00,